Time;durP1;ratioP1;P1;durP2;ratioP2;P2;SDS_P1;SDS_P2;PMS_P1;PMS_P2;Temp;Humidity;BMP_temperature;BMP_pressure;BME280_temperature;BME280_humidity;BME280_pressure;Samples;Min_cycle;Max_cycle;Signal;HPM_P1;HPM_P2
2022/10/26 00:01:09;;;;;;;1.52;0.70;;;;;;;13.48;nan;100468.09;5082776;28;20045;-67
2022/10/26 00:03:34;;;;;;;;;;;;;;;13.45;nan;100466.59;5079745;28;20315;-67
2022/10/26 00:06:05;;;;;;;4.43;1.13;;;;;;;13.38;nan;100455.84;5092500;28;19916;-67
2022/10/26 00:08:30;;;;;;;2.80;1.08;;;;;;;13.40;nan;100457.50;5111626;28;20027;-68
2022/10/26 00:10:58;;;;;;;2.42;1.10;;;;;;;13.40;nan;100458.31;5092726;28;20072;-67
2022/10/26 00:13:24;;;;;;;3.65;1.45;;;;;;;13.32;nan;100455.69;5091093;28;20459;-67
2022/10/26 00:15:50;;;;;;;3.38;1.58;;;;;;;13.30;nan;100458.53;5090966;28;20246;-67
2022/10/26 00:18:15;;;;;;;2.63;1.40;;;;;;;13.30;nan;100461.19;5090283;28;20040;-67
2022/10/26 00:20:41;;;;;;;2.85;1.40;;;;;;;13.33;nan;100452.88;5090988;28;20035;-67
2022/10/26 00:23:06;;;;;;;2.63;1.50;;;;;;;13.37;nan;100454.19;5104254;28;20496;-67
2022/10/26 00:25:32;;;;;;;3.33;1.40;;;;;;;13.34;nan;100459.81;5070696;28;20472;-67
2022/10/26 00:27:57;;;;;;;3.00;1.50;;;;;;;13.36;nan;100470.28;5079183;28;20036;-67
2022/10/26 00:30:23;;;;;;;2.50;1.23;;;;;;;13.38;nan;100479.75;5088017;28;20071;-67
2022/10/26 00:32:48;;;;;;;1.50;1.00;;;;;;;13.41;nan;100475.09;5088990;28;20057;-67
2022/10/26 00:35:13;;;;;;;2.90;1.48;;;;;;;13.39;nan;100477.91;5088140;28;20404;-68
2022/10/26 00:37:38;;;;;;;3.10;1.40;;;;;;;13.40;nan;100476.91;5088273;28;20085;-67
2022/10/26 00:40:04;;;;;;;3.38;1.70;;;;;;;13.43;nan;100481.88;5088365;28;20127;-67
2022/10/26 00:42:30;;;;;;;2.42;1.45;;;;;;;13.48;nan;100497.31;5087082;28;20109;-67
2022/10/26 00:44:58;;;;;;;3.70;1.40;;;;;;;13.50;nan;100492.66;5088778;28;20055;-67
2022/10/26 00:47:36;;;;;;;2.05;1.30;;;;;;;13.51;nan;100491.66;5088673;28;20751;-68
2022/10/26 00:50:09;;;;;;;3.65;1.55;;;;;;;13.49;nan;100493.63;5087948;28;20032;-67
2022/10/26 00:52:36;;;;;;;3.05;1.40;;;;;;;13.50;nan;100487.34;5079881;28;20085;-67
2022/10/26 00:55:01;;;;;;;3.67;1.63;;;;;;;13.48;nan;100495.47;5088639;28;20071;-67
2022/10/26 00:57:27;;;;;;;2.20;1.10;;;;;;;13.49;nan;100493.63;5088437;28;20052;-66
2022/10/26 00:59:55;;;;;;;2.65;1.40;;;;;;;13.49;nan;100490.97;5088271;28;20097;-66
2022/10/26 01:02:20;;;;;;;3.72;1.52;;;;;;;13.49;nan;100515.75;5079293;28;20032;-67
2022/10/26 01:04:46;;;;;;;4.72;2.03;;;;;;;13.49;nan;100515.75;5090938;28;20047;-67
2022/10/26 01:07:12;;;;;;;5.28;2.30;;;;;;;13.44;nan;100503.94;5092350;28;20536;-67
2022/10/26 01:09:37;;;;;;;5.55;2.55;;;;;;;13.39;nan;100488.53;5088613;28;20032;-67
2022/10/26 01:12:03;;;;;;;5.72;2.50;;;;;;;13.30;nan;100479.78;5086853;28;20128;-66
2022/10/26 01:14:28;;;;;;;3.97;2.33;;;;;;;13.27;nan;100481.91;5087620;28;20064;-67
2022/10/26 01:17:06;;;;;;;4.22;2.40;;;;;;;13.23;nan;100492.06;5088883;28;20032;-67
2022/10/26 01:19:52;;;;;;;6.07;2.65;;;;;;;13.21;nan;100504.66;5070223;28;20061;-67
2022/10/26 01:22:23;;;;;;;3.08;2.20;;;;;;;13.21;nan;100478.09;5090336;28;20539;-66
2022/10/26 01:25:01;;;;;;;3.83;2.10;;;;;;;13.21;nan;100472.81;5086479;28;20048;-67
2022/10/26 01:27:48;;;;;;;4.97;2.30;;;;;;;13.22;nan;100465.66;5088627;28;20040;-67
2022/10/26 01:30:20;;;;;;;5.60;2.47;;;;;;;13.24;nan;100463.66;5088006;28;20021;-67
2022/10/26 01:33:07;;;;;;;4.05;2.00;;;;;;;13.26;nan;100465.16;5087054;28;20077;-67
2022/10/26 01:35:45;;;;;;;4.60;2.15;;;;;;;13.27;nan;100464.16;5082928;28;20043;-67
2022/10/26 01:38:19;;;;;;;4.32;1.98;;;;;;;13.29;nan;100462.16;5086924;28;20035;-66
2022/10/26 01:40:52;;;;;;;3.25;1.95;;;;;;;13.29;nan;100448.88;5088423;28;20043;-67
2022/10/26 01:43:19;;;;;;;3.58;1.85;;;;;;;13.32;nan;100443.25;5086207;28;20074;-66
2022/10/26 01:45:47;;;;;;;3.00;1.60;;;;;;;13.37;nan;100432.94;5087213;28;20032;-67
2022/10/26 01:48:16;;;;;;;3.13;1.60;;;;;;;13.41;nan;100436.06;5086832;28;20040;-67
2022/10/26 01:50:45;;;;;;;3.17;1.40;;;;;;;13.50;nan;100432.38;5081515;28;20032;-67
2022/10/26 01:53:12;;;;;;;2.35;1.17;;;;;;;13.59;nan;100427.88;5070515;28;20032;-67
2022/10/26 01:55:41;;;;;;;2.78;1.58;;;;;;;13.66;nan;100428.81;5087179;28;20046;-67
2022/10/26 01:58:21;;;;;;;2.90;1.23;;;;;;;13.71;nan;100418.50;5087603;28;20360;-67
2022/10/26 02:01:00;;;;;;;2.08;0.90;;;;;;;13.80;nan;100428.09;5086950;28;20040;-67
2022/10/26 02:03:39;;;;;;;3.72;1.15;;;;;;;13.78;nan;100429.25;5079203;28;20051;-67
2022/10/26 02:06:24;;;;;;;2.28;1.15;;;;;;;13.73;nan;100434.25;5087108;28;20035;-67
2022/10/26 02:09:01;;;;;;;1.83;1.05;;;;;;;13.67;nan;100424.34;5079037;28;20389;-67
2022/10/26 02:11:43;;;;;;;2.38;1.02;;;;;;;13.71;nan;100425.66;5087807;28;20040;-67
2022/10/26 02:14:12;;;;;;;1.80;1.08;;;;;;;13.70;nan;100432.75;5077539;28;20040;-67
2022/10/26 02:16:57;;;;;;;2.45;1.05;;;;;;;13.74;nan;100430.59;5087138;28;20126;-67
2022/10/26 02:19:39;;;;;;;2.03;0.95;;;;;;;13.79;nan;100439.69;5085744;28;20081;-67
2022/10/26 02:22:20;;;;;;;2.08;1.10;;;;;;;13.85;nan;100435.53;5089577;28;20181;-67
2022/10/26 02:24:47;;;;;;;;;;;;;;;13.92;nan;100435.63;5092000;28;20028;-66
2022/10/26 02:27:24;;;;;;;2.08;1.00;;;;;;;13.99;nan;100433.91;5087241;28;20406;-67
2022/10/26 02:29:52;;;;;;;3.50;1.17;;;;;;;14.02;nan;100431.75;5086829;28;20032;-66
2022/10/26 02:32:19;;;;;;;3.05;1.40;;;;;;;14.06;nan;100426.06;5077731;28;20508;-67
2022/10/26 02:34:47;;;;;;;4.75;1.60;;;;;;;14.04;nan;100423.63;5087148;28;20382;-67
2022/10/26 02:37:17;;;;;;;4.47;2.10;;;;;;;14.00;nan;100417.00;5068066;28;20520;-67
2022/10/26 02:39:45;;;;;;;2.72;1.50;;;;;;;13.96;nan;100413.03;5085822;28;20036;-67
2022/10/26 02:42:14;;;;;;;3.00;1.52;;;;;;;13.90;nan;100419.06;5067909;28;20120;-67
2022/10/26 02:44:50;;;;;;;2.17;1.33;;;;;;;13.82;nan;100414.59;5087812;28;20400;-67
2022/10/26 02:47:17;;;;;;;2.65;1.40;;;;;;;13.77;nan;100416.97;5084773;28;20024;-67
2022/10/26 02:49:43;;;;;;;3.58;1.90;;;;;;;13.71;nan;100423.00;5078988;28;20111;-67
2022/10/26 02:52:17;;;;;;;2.15;1.48;;;;;;;13.66;nan;100418.19;5085045;28;20042;-67
2022/10/26 02:55:08;;;;;;;3.25;1.58;;;;;;;13.62;nan;100416.06;5086761;28;20078;-67
2022/10/26 02:57:41;;;;;;;;;;;;;;;13.57;nan;100419.25;5084386;28;20126;-67
2022/10/26 03:00:10;;;;;;;3.38;1.70;;;;;;;13.54;nan;100419.59;5085185;28;19920;-68
2022/10/26 03:02:35;;;;;;;3.17;2.00;;;;;;;13.49;nan;100427.22;5086290;28;20071;-67
2022/10/26 03:05:23;;;;;;;3.65;2.20;;;;;;;13.47;nan;100434.56;5086482;28;20048;-66
2022/10/26 03:07:48;;;;;;;5.00;2.05;;;;;;;13.41;nan;100429.94;5085168;28;20093;-67
2022/10/26 03:10:14;;;;;;;3.50;2.20;;;;;;;13.36;nan;100427.78;5086694;28;20464;-67
2022/10/26 03:12:39;;;;;;;5.57;2.22;;;;;;;13.33;nan;100436.94;5086547;28;20040;-66
2022/10/26 03:15:05;;;;;;;4.82;2.10;;;;;;;13.29;nan;100443.59;5085567;28;20032;-66
2022/10/26 03:17:30;;;;;;;3.97;1.85;;;;;;;13.29;nan;100451.53;5086240;28;20036;-66
2022/10/26 03:19:55;;;;;;;4.40;2.30;;;;;;;13.29;nan;100474.63;5086325;28;20051;-67
2022/10/26 03:22:21;;;;;;;3.60;2.20;;;;;;;13.28;nan;100483.59;5093193;28;20028;-67
2022/10/26 03:24:47;;;;;;;4.22;2.15;;;;;;;13.27;nan;100490.72;5088141;28;20040;-67
2022/10/26 03:27:12;;;;;;;3.47;2.50;;;;;;;13.21;nan;100495.88;5086356;28;20050;-67
2022/10/26 03:29:38;;;;;;;7.25;2.97;;;;;;;13.18;nan;100468.66;5066807;28;20036;-66
2022/10/26 03:32:03;;;;;;;4.82;2.75;;;;;;;13.13;nan;100473.66;5085319;28;20063;-67
2022/10/26 03:34:29;;;;;;;4.43;2.30;;;;;;;13.04;nan;100476.47;5084753;28;20048;-67
2022/10/26 03:36:54;;;;;;;4.80;2.67;;;;;;;12.92;nan;100484.81;5085624;28;20124;-68
2022/10/26 03:39:19;;;;;;;4.57;2.30;;;;;;;12.86;nan;100487.28;5085484;28;20105;-67
2022/10/26 03:41:44;;;;;;;4.60;2.30;;;;;;;12.79;nan;100495.09;5086442;28;20321;-67
2022/10/26 03:44:10;;;;;;;6.50;2.10;;;;;;;12.78;nan;100497.94;5084756;28;20286;-67
2022/10/26 03:46:35;;;;;;;4.10;1.85;;;;;;;12.79;nan;100491.63;5085401;28;20043;-67
2022/10/26 03:49:00;;;;;;;4.23;1.67;;;;;;;12.75;nan;100494.59;5083575;28;20089;-67
2022/10/26 03:51:26;;;;;;;4.75;2.42;;;;;;;12.75;nan;100484.00;5085631;28;20282;-66
2022/10/26 03:53:52;;;;;;;3.10;1.90;;;;;;;12.75;nan;100477.84;5086341;28;20066;-67
2022/10/26 03:56:17;;;;;;;3.85;1.88;;;;;;;12.79;nan;100479.16;5086048;28;20069;-67
2022/10/26 03:58:42;;;;;;;2.87;1.67;;;;;;;12.78;nan;100469.56;5066056;28;20054;-67
2022/10/26 04:01:07;;;;;;;3.43;1.50;;;;;;;12.77;nan;100459.09;5085270;28;20701;-67
2022/10/26 04:03:33;;;;;;;3.83;2.08;;;;;;;12.73;nan;100453.31;5085430;28;20279;-67
2022/10/26 04:06:01;;;;;;;8.95;3.50;;;;;;;12.69;nan;100450.16;5096369;28;20027;-67
2022/10/26 04:08:27;;;;;;;8.43;3.65;;;;;;;12.68;nan;100442.34;5085062;28;20123;-67
2022/10/26 04:10:52;;;;;;;5.13;2.70;;;;;;;12.68;nan;100439.69;5082068;28;20124;-67
2022/10/26 04:13:17;;;;;;;7.77;2.70;;;;;;;12.64;nan;100427.78;5085056;28;20065;-67
2022/10/26 04:15:43;;;;;;;4.40;2.50;;;;;;;12.59;nan;100422.16;5085562;28;20278;-67
2022/10/26 04:18:11;;;;;;;5.82;2.80;;;;;;;12.53;nan;100427.13;5082662;28;20036;-67
2022/10/26 04:20:37;;;;;;;8.35;3.78;;;;;;;12.45;nan;100423.66;5085952;28;20036;-67
2022/10/26 04:23:05;;;;;;;7.35;3.78;;;;;;;12.39;nan;100424.31;5090228;28;20031;-67
2022/10/26 04:25:32;;;;;;;6.40;3.45;;;;;;;12.36;nan;100430.78;5087819;28;20032;-67
2022/10/26 04:27:57;;;;;;;10.68;4.00;;;;;;;12.30;nan;100436.75;5067095;28;20090;-67
2022/10/26 04:30:23;;;;;;;6.55;3.42;;;;;;;12.28;nan;100433.44;5085194;28;20036;-67
2022/10/26 04:32:48;;;;;;;4.43;2.70;;;;;;;12.27;nan;100437.88;5084711;28;20036;-67
2022/10/26 04:35:14;;;;;;;5.80;2.88;;;;;;;12.22;nan;100439.38;5086130;28;20036;-67
2022/10/26 04:37:39;;;;;;;8.10;2.90;;;;;;;12.21;nan;100440.41;5088765;28;20404;-67
2022/10/26 04:40:04;;;;;;;3.70;2.22;;;;;;;12.16;nan;100438.25;5079661;28;20116;-67
2022/10/26 04:42:32;;;;;;;4.28;1.92;;;;;;;12.11;nan;100440.56;5088319;28;20032;-67
2022/10/26 04:44:58;;;;;;;3.22;1.80;;;;;;;12.08;nan;100446.16;5089374;28;20122;-67
2022/10/26 04:47:23;;;;;;;3.90;2.50;;;;;;;12.06;nan;100449.00;5088484;28;20123;-67
2022/10/26 04:49:49;;;;;;;5.43;2.75;;;;;;;12.04;nan;100461.56;5088186;28;20040;-67
2022/10/26 04:52:14;;;;;;;7.25;2.97;;;;;;;12.01;nan;100446.00;5088863;28;20142;-67
2022/10/26 04:54:39;;;;;;;6.50;3.40;;;;;;;12.01;nan;100446.00;5088751;28;20059;-67
2022/10/26 04:57:04;;;;;;;9.23;4.15;;;;;;;12.02;nan;100445.00;5088523;28;20490;-67
2022/10/26 04:59:29;;;;;;;6.78;2.92;;;;;;;12.04;nan;100445.69;5089549;28;20067;-67
2022/10/26 05:01:55;;;;;;;6.30;2.80;;;;;;;12.05;nan;100447.31;5089103;28;20050;-67
2022/10/26 05:04:20;;;;;;;5.03;2.40;;;;;;;12.11;nan;100446.69;5088510;28;20447;-67
2022/10/26 05:06:45;;;;;;;4.47;2.40;;;;;;;12.16;nan;100459.44;5088618;28;20036;-67
2022/10/26 05:09:11;;;;;;;6.20;2.92;;;;;;;12.17;nan;100445.19;5088740;28;21360;-67
2022/10/26 05:11:36;;;;;;;5.45;2.20;;;;;;;12.21;nan;100453.66;5088982;28;20211;-67
2022/10/26 05:14:01;;;;;;;4.88;2.30;;;;;;;12.24;nan;100453.31;5088819;28;20035;-67
2022/10/26 05:16:26;;;;;;;3.55;2.42;;;;;;;12.26;nan;100449.50;5087532;28;20451;-67
2022/10/26 05:18:52;;;;;;;4.85;2.53;;;;;;;12.29;nan;100443.84;5088074;28;20043;-68
2022/10/26 05:21:20;;;;;;;4.45;2.38;;;;;;;12.30;nan;100450.84;5090857;28;20164;-67
2022/10/26 05:23:51;;;;;;;3.50;2.00;;;;;;;12.35;nan;100441.53;5093484;28;20040;-68
2022/10/26 05:26:16;;;;;;;3.92;2.13;;;;;;;12.39;nan;100451.66;5086609;28;20389;-68
2022/10/26 05:28:42;;;;;;;4.13;2.42;;;;;;;12.40;nan;100440.06;5088444;28;20036;-67
2022/10/26 05:31:07;;;;;;;4.43;2.28;;;;;;;12.42;nan;100443.38;5087911;28;20040;-67
2022/10/26 05:33:32;;;;;;;5.13;2.30;;;;;;;12.46;nan;100450.00;5088075;28;20036;-67
2022/10/26 05:35:57;;;;;;;3.33;2.00;;;;;;;12.50;nan;100463.78;5087252;28;20278;-67
2022/10/26 05:38:23;;;;;;;3.70;2.13;;;;;;;12.55;nan;100469.41;5079650;28;20118;-68
2022/10/26 05:40:50;;;;;;;3.63;2.38;;;;;;;12.59;nan;100465.44;5087731;28;20090;-67
2022/10/26 05:43:16;;;;;;;4.45;2.25;;;;;;;12.62;nan;100462.44;5087255;28;20397;-68
2022/10/26 05:45:41;;;;;;;5.53;2.60;;;;;;;12.65;nan;100461.28;5087009;28;20038;-68
2022/10/26 05:48:06;;;;;;;3.38;2.03;;;;;;;12.67;nan;100459.28;5086087;28;20447;-67
2022/10/26 05:50:32;;;;;;;3.97;2.10;;;;;;;12.68;nan;100467.09;5087165;28;20493;-68
2022/10/26 05:52:57;;;;;;;4.85;2.53;;;;;;;12.71;nan;100465.91;5085434;28;20066;-68
2022/10/26 05:55:22;;;;;;;5.15;2.45;;;;;;;12.72;nan;100479.00;5087020;28;20060;-67
2022/10/26 05:57:48;;;;;;;5.30;1.90;;;;;;;12.73;nan;100474.53;5087343;28;20513;-67
2022/10/26 06:00:19;;;;;;;5.35;2.40;;;;;;;12.77;nan;100493.59;5087455;28;20040;-67
2022/10/26 06:03:03;;;;;;;;;;;;;;;12.72;nan;100489.63;5086605;28;20040;-67
2022/10/26 06:05:34;;;;;;;4.50;2.63;;;;;;;12.78;nan;100501.41;5085313;28;19924;-67
2022/10/26 06:08:00;;;;;;;3.65;2.22;;;;;;;12.81;nan;100500.25;5091475;27;20039;-67
2022/10/26 06:10:26;;;;;;;5.50;2.60;;;;;;;12.83;nan;100506.22;5085825;28;20040;-67
2022/10/26 06:12:51;;;;;;;5.13;2.60;;;;;;;12.85;nan;100518.31;5076923;28;20393;-67
2022/10/26 06:15:21;;;;;;;4.18;2.80;;;;;;;12.88;nan;100512.66;5087875;28;20041;-67
2022/10/26 06:18:06;;;;;;;5.30;2.65;;;;;;;12.92;nan;100527.28;5087388;28;20043;-67
2022/10/26 06:20:53;;;;;;;5.10;2.90;;;;;;;12.96;nan;100528.56;5079344;28;20059;-67
2022/10/26 06:23:30;;;;;;;4.38;2.50;;;;;;;13.00;nan;100523.78;5088734;28;20098;-67
2022/10/26 06:26:26;;;;;;;2.80;1.92;;;;;;;13.03;nan;100535.88;5083039;28;20031;-67
2022/10/26 06:29:23;;;;;;;4.25;2.50;;;;;;;13.05;nan;100544.50;5069898;28;20131;-67
2022/10/26 06:31:49;;;;;;;4.28;2.33;;;;;;;13.08;nan;100546.81;5084054;28;20051;-67
2022/10/26 06:34:21;;;;;;;5.35;2.38;;;;;;;13.13;nan;100541.84;5087457;28;20044;-67
2022/10/26 06:36:48;;;;;;;5.07;2.78;;;;;;;13.12;nan;100543.66;5087362;28;20569;-67
2022/10/26 06:39:15;;;;;;;4.47;2.60;;;;;;;13.15;nan;100542.50;5087340;28;20043;-67
2022/10/26 06:41:41;;;;;;;3.97;2.42;;;;;;;13.22;nan;100542.66;5085836;28;20405;-68
2022/10/26 06:44:21;;;;;;;4.20;2.30;;;;;;;13.30;nan;100551.47;5087337;28;20036;-68
2022/10/26 06:47:27;;;;;;;7.13;2.20;;;;;;;13.38;nan;100545.31;5092700;28;20024;-67
2022/10/26 06:50:13;;;;;;;3.92;2.10;;;;;;;13.49;nan;100555.59;5044531;28;20500;-67
2022/10/26 06:52:50;;;;;;;4.20;2.00;;;;;;;13.64;nan;100552.22;5091476;28;20046;-67
2022/10/26 06:55:16;;;;;;;4.85;1.90;;;;;;;13.76;nan;100558.81;5086870;28;20105;-67
2022/10/26 06:57:42;;;;;;;5.07;1.70;;;;;;;13.89;nan;100560.94;5087715;28;20032;-67
2022/10/26 07:00:14;;;;;;;4.30;1.70;;;;;;;14.13;nan;100566.13;5089766;28;20044;-68
2022/10/26 07:02:39;;;;;;;4.55;1.60;;;;;;;14.31;nan;100557.06;5081014;28;20034;-67
2022/10/26 07:05:08;;;;;;;5.25;2.08;;;;;;;14.44;nan;100565.28;5091114;28;20388;-67
2022/10/26 07:07:36;;;;;;;4.60;1.90;;;;;;;14.53;nan;100564.22;5092906;28;20064;-67
2022/10/26 07:10:01;;;;;;;3.13;1.73;;;;;;;14.61;nan;100563.38;5086606;28;20377;-67
2022/10/26 07:12:26;;;;;;;3.10;1.80;;;;;;;14.65;nan;100564.69;5068171;28;20051;-67
2022/10/26 07:14:51;;;;;;;3.03;1.63;;;;;;;14.72;nan;100562.97;5083618;28;20558;-68
2022/10/26 07:17:17;;;;;;;3.20;1.80;;;;;;;14.78;nan;100580.91;5069706;28;20032;-68
2022/10/26 07:19:43;;;;;;;4.93;1.80;;;;;;;14.82;nan;100568.03;5085217;28;20339;-67
2022/10/26 07:22:09;;;;;;;6.82;1.83;;;;;;;14.85;nan;100575.69;5085850;28;20038;-68
2022/10/26 07:24:34;;;;;;;4.30;1.90;;;;;;;14.94;nan;100585.25;5086890;28;20032;-67
2022/10/26 07:26:59;;;;;;;4.40;1.50;;;;;;;15.02;nan;100593.19;5082110;28;20601;-67
2022/10/26 07:29:25;;;;;;;3.42;1.60;;;;;;;15.05;nan;100598.16;5092621;28;20028;-67
2022/10/26 07:31:51;;;;;;;3.90;1.60;;;;;;;15.11;nan;100601.09;5091734;28;20216;-67
2022/10/26 07:34:17;;;;;;;4.20;1.80;;;;;;;15.18;nan;100607.34;5080623;28;20404;-67
2022/10/26 07:36:42;;;;;;;4.53;1.60;;;;;;;15.23;nan;100620.97;5084377;28;20032;-67
2022/10/26 07:39:07;;;;;;;5.07;2.00;;;;;;;15.27;nan;100620.44;5066148;28;20318;-67
2022/10/26 07:41:33;;;;;;;7.53;2.17;;;;;;;15.34;nan;100617.88;5084951;28;20040;-67
2022/10/26 07:43:59;;;;;;;4.05;1.70;;;;;;;15.40;nan;100616.34;5081876;28;20108;-67
2022/10/26 07:46:24;;;;;;;4.50;1.70;;;;;;;15.49;nan;100609.91;5083674;28;20040;-67
2022/10/26 07:48:50;;;;;;;4.18;1.65;;;;;;;15.49;nan;100613.41;5087271;28;20185;-67
2022/10/26 07:51:15;;;;;;;4.18;1.98;;;;;;;15.48;nan;100624.25;5087046;28;20485;-67
2022/10/26 07:53:40;;;;;;;5.13;1.57;;;;;;;15.46;nan;100621.75;5073021;28;20036;-67
2022/10/26 07:56:06;;;;;;;3.75;1.85;;;;;;;15.39;nan;100620.00;5086391;28;20321;-68
2022/10/26 07:58:32;;;;;;;5.13;1.58;;;;;;;15.33;nan;100621.56;5082790;28;20534;-67
2022/10/26 08:01:07;;;;;;;4.88;1.70;;;;;;;15.41;nan;100634.78;5085856;28;20048;-67
2022/10/26 08:03:33;;;;;;;3.75;1.60;;;;;;;15.46;nan;100635.06;5084408;28;20049;-67
2022/10/26 08:05:58;;;;;;;3.65;1.52;;;;;;;15.58;nan;100631.97;5086750;28;20526;-67
2022/10/26 08:08:23;;;;;;;3.97;1.90;;;;;;;15.67;nan;100629.03;5082829;28;20468;-67
2022/10/26 08:10:49;;;;;;;2.40;1.70;;;;;;;15.76;nan;100621.81;5084680;28;20138;-67
2022/10/26 08:13:15;;;;;;;3.00;1.50;;;;;;;15.86;nan;100632.22;5070362;28;20031;-67
2022/10/26 08:15:40;;;;;;;7.65;1.80;;;;;;;15.88;nan;100622.19;5088249;28;20048;-67
2022/10/26 08:18:06;;;;;;;3.20;1.50;;;;;;;15.89;nan;100638.00;5089100;28;20052;-67
2022/10/26 08:20:32;;;;;;;3.47;1.60;;;;;;;15.90;nan;100634.34;5089417;28;20278;-67
2022/10/26 08:22:58;;;;;;;3.67;1.60;;;;;;;15.97;nan;100641.59;5089478;28;20452;-67
2022/10/26 08:25:24;;;;;;;3.42;1.70;;;;;;;16.01;nan;100641.03;5097504;28;20048;-67
2022/10/26 08:27:49;;;;;;;5.05;1.60;;;;;;;16.10;nan;100639.94;5084734;28;20431;-67
2022/10/26 08:30:15;;;;;;;5.95;1.80;;;;;;;16.18;nan;100639.00;5088066;28;20429;-67
2022/10/26 08:32:41;;;;;;;4.95;1.58;;;;;;;16.22;nan;100637.63;5073054;28;20460;-67
2022/10/26 08:35:07;;;;;;;4.40;1.77;;;;;;;16.34;nan;100638.78;5090320;28;20063;-67
2022/10/26 08:37:32;;;;;;;4.55;1.58;;;;;;;16.52;nan;100645.59;5088381;28;20067;-67
2022/10/26 08:39:57;;;;;;;5.32;1.73;;;;;;;16.70;nan;100642.47;5084757;28;20036;-67
2022/10/26 08:42:30;;;;;;;3.08;1.50;;;;;;;16.83;nan;100642.66;5084096;28;20453;-67
2022/10/26 08:45:02;;;;;;;6.45;1.42;;;;;;;16.83;nan;100645.34;5088797;28;20348;-67
2022/10/26 08:47:34;;;;;;;3.97;1.95;;;;;;;16.82;nan;100642.84;5084132;28;20063;-67
2022/10/26 08:50:23;;;;;;;3.67;1.60;;;;;;;16.91;nan;100649.72;5081706;28;20173;-67
2022/10/26 08:53:01;;;;;;;4.22;1.90;;;;;;;17.11;nan;100647.22;5088131;28;20036;-67
2022/10/26 08:55:38;;;;;;;6.13;1.70;;;;;;;17.23;nan;100651.03;5086717;28;20055;-67
2022/10/26 08:58:12;;;;;;;3.10;1.60;;;;;;;17.46;nan;100655.34;5080738;28;20036;-67
2022/10/26 09:00:38;;;;;;;2.78;1.40;;;;;;;17.62;nan;100671.09;5088667;28;20454;-68
2022/10/26 09:03:13;;;;;;;6.15;2.00;;;;;;;17.72;nan;100660.06;5088845;28;20040;-67
2022/10/26 09:05:54;;;;;;;4.72;1.90;;;;;;;17.77;nan;100655.78;5085398;28;20082;-67
2022/10/26 09:08:31;;;;;;;4.03;1.70;;;;;;;17.80;nan;100670.59;5087138;28;20804;-67
2022/10/26 09:11:15;;;;;;;4.13;1.90;;;;;;;17.89;nan;100672.13;5087518;28;20036;-67
2022/10/26 09:14:03;;;;;;;3.50;1.40;;;;;;;18.23;nan;100673.13;5088061;28;20585;-67
2022/10/26 09:16:50;;;;;;;4.47;1.77;;;;;;;18.43;nan;100679.44;5087910;28;20048;-68
2022/10/26 09:19:42;;;;;;;4.38;1.77;;;;;;;18.57;nan;100685.66;5087202;28;20028;-68
2022/10/26 09:22:32;;;;;;;4.85;1.70;;;;;;;18.79;nan;100681.03;5084929;28;20073;-67
2022/10/26 09:25:10;;;;;;;3.80;1.80;;;;;;;19.05;nan;100680.25;5084820;28;20037;-68
2022/10/26 09:27:42;;;;;;;5.10;1.90;;;;;;;19.49;nan;100683.38;5085619;28;20070;-67
2022/10/26 09:30:14;;;;;;;4.63;2.00;;;;;;;19.80;nan;100685.44;5079190;28;20400;-69
2022/10/26 09:32:44;;;;;;;3.60;1.80;;;;;;;19.86;nan;100692.66;5083623;28;20036;-67
2022/10/26 09:35:41;;;;;;;6.80;2.07;;;;;;;19.64;nan;100692.06;5081238;28;20051;-67
2022/10/26 09:38:31;;;;;;;4.65;1.88;;;;;;;19.61;nan;100697.00;5059066;28;20617;-69
2022/10/26 09:41:31;;;;;;;6.35;2.03;;;;;;;19.71;nan;100702.78;5084716;28;20040;-67
2022/10/26 09:44:31;;;;;;;4.05;2.00;;;;;;;20.06;nan;100707.91;5083289;28;20047;-67
2022/10/26 09:47:11;;;;;;;3.70;1.77;;;;;;;20.32;nan;100707.00;5062129;28;20509;-67
2022/10/26 09:49:42;;;;;;;4.03;1.87;;;;;;;20.39;nan;100701.63;5079175;28;20032;-67
2022/10/26 09:52:08;;;;;;;;;;;;;;;20.40;nan;100696.03;5080707;28;20043;-68
2022/10/26 09:54:33;;;;;;;6.10;1.87;;;;;;;20.42;nan;100703.88;5082036;28;19920;-67
2022/10/26 09:57:03;;;;;;;5.20;1.90;;;;;;;20.29;nan;100707.44;5082623;28;20368;-67
2022/10/26 09:59:32;;;;;;;3.13;1.80;;;;;;;19.98;nan;100708.97;5083289;28;20040;-67
2022/10/26 10:01:57;;;;;;;5.63;1.90;;;;;;;19.83;nan;100708.34;5080451;28;20051;-68
2022/10/26 10:04:23;;;;;;;6.45;1.90;;;;;;;19.75;nan;100711.25;5084611;28;20420;-67
2022/10/26 10:07:00;;;;;;;4.82;1.80;;;;;;;19.79;nan;100717.88;5085925;28;20039;-68
2022/10/26 10:09:26;;;;;;;4.93;2.00;;;;;;;19.89;nan;100716.41;5084186;28;20609;-69
2022/10/26 10:11:55;;;;;;;5.45;2.20;;;;;;;19.99;nan;100724.03;5084574;28;20032;-68
2022/10/26 10:14:26;;;;;;;4.70;2.28;;;;;;;20.02;nan;100729.00;5085737;28;21052;-67
2022/10/26 10:17:00;;;;;;;4.95;1.98;;;;;;;20.11;nan;100733.06;5085728;28;20047;-68
2022/10/26 10:19:34;;;;;;;5.25;2.00;;;;;;;20.18;nan;100734.94;5086163;28;20452;-68
2022/10/26 10:22:17;;;;;;;4.53;1.83;;;;;;;20.17;nan;100736.81;5081917;28;20048;-67
2022/10/26 10:24:59;;;;;;;5.45;2.20;;;;;;;20.18;nan;100740.31;5082418;28;21708;-68
2022/10/26 10:27:25;;;;;;;3.80;1.65;;;;;;;20.12;nan;100740.13;5084872;28;20162;-68
2022/10/26 10:29:54;;;;;;;6.75;2.20;;;;;;;20.12;nan;100734.75;5084946;28;20028;-67
2022/10/26 10:32:26;;;;;;;6.45;2.03;;;;;;;20.24;nan;100734.09;5086183;28;20039;-67
2022/10/26 10:34:54;;;;;;;4.55;1.95;;;;;;;20.63;nan;100732.34;5084542;28;20123;-67
2022/10/26 10:37:33;;;;;;;5.80;2.00;;;;;;;20.82;nan;100744.06;5084256;28;20511;-67
2022/10/26 10:40:06;;;;;;;5.95;1.98;;;;;;;20.81;nan;100747.75;5082946;28;20485;-68
2022/10/26 10:42:35;;;;;;;5.22;2.20;;;;;;;20.68;nan;100756.72;5085041;28;20048;-68
2022/10/26 10:45:01;;;;;;;5.47;2.00;;;;;;;20.49;nan;100758.41;5084510;28;20601;-68
2022/10/26 10:47:33;;;;;;;4.50;1.90;;;;;;;20.65;nan;100765.22;5083463;28;20421;-67
2022/10/26 10:50:03;;;;;;;4.88;2.00;;;;;;;20.77;nan;100758.94;5082533;28;20393;-68
2022/10/26 10:52:31;;;;;;;5.47;2.05;;;;;;;20.77;nan;100768.88;5082580;28;20089;-68
2022/10/26 10:55:19;;;;;;;7.70;2.30;;;;;;;21.00;nan;100766.50;5086144;28;20081;-68
2022/10/26 10:58:14;;;;;;;5.03;2.13;;;;;;;22.00;nan;100768.50;5084582;28;20032;-67
2022/10/26 11:00:42;;;;;;;4.60;1.95;;;;;;;22.47;nan;100778.81;5083977;28;20119;-67
2022/10/26 11:03:18;;;;;;;5.05;2.17;;;;;;;22.32;nan;100773.81;5066845;28;20043;-67
2022/10/26 11:06:14;;;;;;;4.40;1.90;;;;;;;23.11;nan;100784.72;5088046;28;20130;-68
2022/10/26 11:08:47;;;;;;;5.78;1.73;;;;;;;24.11;nan;100786.69;5085927;28;20034;-67
2022/10/26 11:11:17;;;;;;;;;;;;;;;24.95;nan;100789.03;5084234;28;20035;-68
2022/10/26 11:14:15;;;;;;;;;;;;;;;25.06;nan;100791.97;5086339;28;20415;-67
2022/10/26 11:16:46;;;;;;;;;;;;;;;24.64;nan;100781.38;5051236;28;20554;-68
2022/10/26 11:19:11;;;;;;;;;;;;;;;24.34;nan;100780.47;5083066;28;19928;-68
2022/10/26 11:21:39;;;;;;;4.65;1.80;;;;;;;24.09;nan;100775.31;5084987;28;20230;-68
2022/10/26 11:24:17;;;;;;;3.85;1.67;;;;;;;23.90;nan;100771.88;5084729;28;20050;-68
2022/10/26 11:27:15;;;;;;;3.10;1.70;;;;;;;23.84;nan;100777.44;5081558;28;20040;-67
2022/10/26 11:30:02;;;;;;;4.68;1.83;;;;;;;23.51;nan;100786.84;5070683;28;20120;-67
2022/10/26 11:32:36;;;;;;;5.00;1.85;;;;;;;23.16;nan;100786.72;5084860;28;20174;-67
2022/10/26 11:35:15;;;;;;;7.43;1.95;;;;;;;22.87;nan;100787.28;5085202;28;20120;-67
2022/10/26 11:37:49;;;;;;;7.32;2.30;;;;;;;22.48;nan;100791.28;5089156;28;20089;-67
2022/10/26 11:40:20;;;;;;;7.63;1.95;;;;;;;22.34;nan;100790.59;5081541;28;20036;-67
2022/10/26 11:43:09;;;;;;;;;;;;;;;22.14;nan;100789.91;5073766;28;20040;-67
2022/10/26 11:45:50;;;;;;;7.03;2.20;;;;;;;21.90;nan;100792.41;5074222;28;20397;-67
2022/10/26 11:48:27;;;;;;;6.85;2.28;;;;;;;21.70;nan;100791.75;5090915;28;20040;-68
2022/10/26 11:50:56;;;;;;;4.75;2.13;;;;;;;21.57;nan;100789.97;5082616;28;20050;-67
2022/10/26 11:53:38;;;;;;;4.97;1.90;;;;;;;21.50;nan;100790.03;5086475;28;20362;-67
2022/10/26 11:56:26;;;;;;;4.90;2.10;;;;;;;21.48;nan;100783.22;5085637;28;20040;-67
2022/10/26 11:58:52;;;;;;;5.90;2.13;;;;;;;21.41;nan;100794.84;5088057;28;20046;-67
2022/10/26 12:01:18;;;;;;;5.07;2.03;;;;;;;21.39;nan;100791.53;5088522;28;20044;-67